createdAt,value
2022-12-05T00:01:42.520Z,6.61
2022-12-05T00:04:14.692Z,6.61
2022-12-05T00:06:43.232Z,6.61
2022-12-05T00:09:13.657Z,6.59
2022-12-05T00:11:44.961Z,6.60
2022-12-05T00:14:13.741Z,6.59
2022-12-05T00:16:44.173Z,6.59
2022-12-05T00:19:15.189Z,6.58
2022-12-05T00:21:43.386Z,6.57
2022-12-05T00:24:15.387Z,6.57
2022-12-05T00:26:43.704Z,6.57
2022-12-05T00:29:11.037Z,6.57
2022-12-05T00:31:38.940Z,6.57
2022-12-05T00:34:06.897Z,6.58
2022-12-05T00:36:36.827Z,6.58
2022-12-05T00:39:12.016Z,6.58
2022-12-05T00:41:39.827Z,6.58
2022-12-05T00:44:08.200Z,6.59
2022-12-05T00:46:36.764Z,6.59
2022-12-05T00:49:06.997Z,6.59
2022-12-05T00:51:41.554Z,6.58
2022-12-05T00:54:14.300Z,6.59
2022-12-05T00:56:43.219Z,6.58
2022-12-05T00:59:17.543Z,6.59
2022-12-05T01:01:47.844Z,6.60
2022-12-05T01:04:23.294Z,6.61
2022-12-05T01:06:54.903Z,6.59
2022-12-05T01:09:22.638Z,6.60
2022-12-05T01:11:50.860Z,6.60
2022-12-05T01:14:22.083Z,6.59
2022-12-05T01:16:52.930Z,6.61
2022-12-05T01:19:26.180Z,6.60
2022-12-05T01:21:54.727Z,6.61
2022-12-05T01:24:25.021Z,6.58
2022-12-05T01:27:20.125Z,6.60
2022-12-05T01:29:47.299Z,6.60
2022-12-05T01:32:14.669Z,6.60
2022-12-05T01:34:42.019Z,6.58
2022-12-05T01:37:09.284Z,6.58
2022-12-05T01:39:36.450Z,6.59
2022-12-05T01:42:05.877Z,6.59
2022-12-05T01:44:32.975Z,6.59
2022-12-05T01:47:00.152Z,6.59
2022-12-05T01:49:40.718Z,6.59
2022-12-05T01:52:22.863Z,6.59
2022-12-05T01:54:55.667Z,6.60
2022-12-05T01:57:23.951Z,6.58
2022-12-05T02:00:00.229Z,6.58
2022-12-05T02:02:32.266Z,6.59
2022-12-05T02:05:25.722Z,6.60
2022-12-05T02:07:53.196Z,6.58
2022-12-05T02:10:21.503Z,6.59
2022-12-05T02:12:51.458Z,6.60
2022-12-05T02:15:45.260Z,6.60
2022-12-05T02:18:57.264Z,6.59
2022-12-05T02:21:52.438Z,6.59
2022-12-05T02:24:50.445Z,6.59
2022-12-05T02:28:15.194Z,6.59
2022-12-05T02:30:57.858Z,6.59
2022-12-05T02:34:06.820Z,6.57
2022-12-05T02:37:02.473Z,6.59
2022-12-05T02:40:05.429Z,6.58
2022-12-05T02:43:11.018Z,6.55
2022-12-05T02:45:41.610Z,6.56
2022-12-05T02:48:11.492Z,6.57
2022-12-05T02:50:42.346Z,6.56
2022-12-05T02:53:15.793Z,6.57
2022-12-05T02:55:45.697Z,6.56
2022-12-05T02:58:26.913Z,6.56
2022-12-05T03:00:58.445Z,6.58
2022-12-05T03:03:26.791Z,6.61
2022-12-05T03:06:22.000Z,6.61
2022-12-05T03:09:05.304Z,6.66
2022-12-05T03:11:48.800Z,6.67
2022-12-05T03:14:28.838Z,6.62
2022-12-05T03:17:06.577Z,6.61
2022-12-05T03:20:19.616Z,6.64
2022-12-05T03:23:04.224Z,6.61
2022-12-05T03:25:58.012Z,6.59
2022-12-05T03:28:46.706Z,6.56
2022-12-05T03:31:21.555Z,6.55
2022-12-05T03:33:56.893Z,6.55
2022-12-05T03:36:38.494Z,6.58
2022-12-05T03:39:29.450Z,6.57
2022-12-05T03:42:13.877Z,6.56
2022-12-05T03:45:06.712Z,6.56
2022-12-05T03:48:05.713Z,6.54
2022-12-05T03:50:35.254Z,6.55
2022-12-05T03:53:21.389Z,6.57
2022-12-05T03:56:12.730Z,6.57
2022-12-05T03:59:14.242Z,6.57
2022-12-05T04:01:43.635Z,6.57
2022-12-05T04:04:20.940Z,6.62
2022-12-05T04:06:51.748Z,6.57
2022-12-05T04:09:27.355Z,6.60
2022-12-05T04:12:06.849Z,6.55
2022-12-05T04:14:51.012Z,6.55
2022-12-05T04:17:53.922Z,6.55
2022-12-05T04:20:58.159Z,6.54
2022-12-05T04:23:27.901Z,6.51
2022-12-05T04:26:21.634Z,6.51
2022-12-05T04:29:32.308Z,6.53
2022-12-05T04:32:06.947Z,6.53
2022-12-05T04:34:37.764Z,6.53
2022-12-05T04:37:13.617Z,6.52
2022-12-05T04:40:28.736Z,6.53
2022-12-05T04:42:59.348Z,6.54
2022-12-05T04:45:27.498Z,6.51
2022-12-05T04:48:12.318Z,6.55
2022-12-05T04:50:42.523Z,6.53
2022-12-05T04:53:12.727Z,6.56
2022-12-05T04:55:47.772Z,6.55
2022-12-05T04:58:20.854Z,6.60
2022-12-05T05:01:20.062Z,6.59
2022-12-05T05:04:26.425Z,6.56
2022-12-05T05:06:53.823Z,6.58
2022-12-05T05:09:21.086Z,6.58
2022-12-05T05:11:48.940Z,6.60
2022-12-05T05:14:16.127Z,6.56
2022-12-05T05:16:44.768Z,6.58
2022-12-05T05:19:12.964Z,6.59
2022-12-05T05:21:42.721Z,6.57
2022-12-05T05:24:12.163Z,6.56
2022-12-05T05:26:43.197Z,6.56
2022-12-05T05:29:12.274Z,6.58
2022-12-05T05:31:41.561Z,6.57
2022-12-05T05:34:12.273Z,6.59
2022-12-05T05:36:39.668Z,6.59
2022-12-05T05:39:14.920Z,6.57
2022-12-05T05:41:43.398Z,6.57
2022-12-05T05:44:10.916Z,6.57
2022-12-05T05:46:38.608Z,6.59
2022-12-05T05:49:06.290Z,6.58
2022-12-05T05:51:34.197Z,6.57
2022-12-05T05:54:01.563Z,6.55
2022-12-05T05:56:29.434Z,6.54
2022-12-05T05:59:03.982Z,6.54
2022-12-05T06:01:32.067Z,6.55
2022-12-05T06:03:59.757Z,6.55
2022-12-05T06:06:27.585Z,6.59
2022-12-05T06:08:55.326Z,6.60
2022-12-05T06:11:27.109Z,6.59
2022-12-05T06:14:02.030Z,6.58
2022-12-05T06:16:31.489Z,6.58
2022-12-05T06:18:59.472Z,6.58
2022-12-05T06:21:27.212Z,6.58
2022-12-05T06:23:55.451Z,6.59
2022-12-05T06:26:23.201Z,6.61
2022-12-05T06:28:50.667Z,6.64
2022-12-05T06:31:28.316Z,6.64
2022-12-05T06:33:55.537Z,6.64
2022-12-05T06:36:23.147Z,6.63
2022-12-05T06:38:50.400Z,6.65
2022-12-05T06:41:20.535Z,6.65
2022-12-05T06:43:47.772Z,6.66
2022-12-05T06:46:15.926Z,6.68
2022-12-05T06:48:43.339Z,6.68
2022-12-05T06:51:15.451Z,6.68
2022-12-05T06:53:43.241Z,6.68
2022-12-05T06:56:15.712Z,6.72
2022-12-05T06:58:49.744Z,6.70
2022-12-05T07:01:39.416Z,6.71
2022-12-05T07:04:24.271Z,6.68
2022-12-05T07:06:54.430Z,6.68
2022-12-05T07:09:44.851Z,6.68
2022-12-05T07:12:18.880Z,6.67
2022-12-05T07:14:48.982Z,6.66
2022-12-05T07:17:19.782Z,6.67
2022-12-05T07:19:52.716Z,6.68
2022-12-05T07:22:22.720Z,6.69
2022-12-05T07:24:53.207Z,6.69
2022-12-05T07:27:26.559Z,6.74
2022-12-05T07:29:55.083Z,6.73
2022-12-05T07:32:22.385Z,6.73
2022-12-05T07:34:54.737Z,6.71
2022-12-05T07:37:22.900Z,6.74
2022-12-05T07:39:51.420Z,6.76
2022-12-05T07:42:18.620Z,6.75
2022-12-05T07:44:45.756Z,6.76
2022-12-05T07:47:13.007Z,6.76
2022-12-05T07:49:40.588Z,6.78
2022-12-05T07:52:07.805Z,6.74
2022-12-05T07:54:35.001Z,6.72
2022-12-05T07:57:02.188Z,6.72
2022-12-05T07:59:29.415Z,6.72
2022-12-05T08:01:56.781Z,6.72
2022-12-05T08:04:24.124Z,6.74
2022-12-05T08:06:51.306Z,6.72
2022-12-05T08:09:18.496Z,6.73
2022-12-05T08:11:51.008Z,6.75
2022-12-05T08:14:20.379Z,6.76
2022-12-05T08:16:48.470Z,6.74
2022-12-05T08:19:17.086Z,6.75
2022-12-05T08:21:44.806Z,6.76
2022-12-05T08:24:12.700Z,6.76
2022-12-05T08:26:40.724Z,6.73
2022-12-05T08:29:15.229Z,6.76
2022-12-05T08:31:49.649Z,6.77
2022-12-05T08:34:20.362Z,6.76
2022-12-05T08:36:47.768Z,6.77
2022-12-05T08:39:19.561Z,6.78
2022-12-05T08:41:47.767Z,6.82
2022-12-05T08:44:16.977Z,6.89
2022-12-05T08:46:48.610Z,6.84
2022-12-05T08:49:16.860Z,6.77
2022-12-05T08:51:45.060Z,6.77
2022-12-05T08:54:12.873Z,6.79
2022-12-05T08:56:40.195Z,6.92
2022-12-05T08:59:07.831Z,6.98
2022-12-05T09:01:38.829Z,6.87
2022-12-05T09:04:07.051Z,6.96
2022-12-05T09:06:35.622Z,6.88
2022-12-05T09:09:08.015Z,6.85
2022-12-05T09:11:46.012Z,6.89
2022-12-05T09:14:13.877Z,6.85
2022-12-05T09:16:43.841Z,6.91
2022-12-05T09:19:24.821Z,6.89
2022-12-05T09:21:52.092Z,6.88
2022-12-05T09:24:19.819Z,6.82
2022-12-05T09:26:47.723Z,6.77
2022-12-05T09:29:18.028Z,6.62
2022-12-05T09:31:48.783Z,6.62
2022-12-05T09:34:17.885Z,6.71
2022-12-05T09:36:55.643Z,6.74
2022-12-05T09:39:25.784Z,6.65
2022-12-05T09:42:34.062Z,6.67
2022-12-05T09:45:35.842Z,6.77
2022-12-05T09:48:16.833Z,6.83
2022-12-05T09:51:02.546Z,6.70
2022-12-05T09:53:39.045Z,6.61
2022-12-05T09:56:09.057Z,6.72
2022-12-05T09:58:46.757Z,6.68
2022-12-05T10:01:45.812Z,6.71
2022-12-05T10:04:51.640Z,6.78
2022-12-05T10:07:48.423Z,6.84
2022-12-05T10:10:56.513Z,6.88
2022-12-05T10:13:49.852Z,6.81
2022-12-05T10:16:59.204Z,6.81
2022-12-05T10:19:42.114Z,6.88
2022-12-05T10:22:20.713Z,6.85
2022-12-05T10:25:05.603Z,6.84
2022-12-05T10:27:50.392Z,6.84
2022-12-05T10:30:24.557Z,6.86
2022-12-05T10:32:59.131Z,6.89
2022-12-05T10:35:37.354Z,6.94
2022-12-05T10:38:29.488Z,7.01
2022-12-05T10:41:08.497Z,7.01
2022-12-05T10:43:40.572Z,6.97
2022-12-05T10:46:12.766Z,6.98
2022-12-05T10:48:43.792Z,7.08
2022-12-05T10:51:25.541Z,7.13
2022-12-05T10:53:54.193Z,7.15
2022-12-05T10:56:48.893Z,7.21
2022-12-05T10:59:21.067Z,7.26
2022-12-05T11:01:56.351Z,7.22
2022-12-05T11:04:27.307Z,7.30
2022-12-05T11:07:01.054Z,7.19
2022-12-05T11:09:37.728Z,7.23
2022-12-05T11:12:23.869Z,7.24
2022-12-05T11:15:19.323Z,7.27
2022-12-05T11:17:47.442Z,7.24
2022-12-05T11:20:20.543Z,7.27
2022-12-05T11:22:54.576Z,7.15
2022-12-05T11:25:36.709Z,7.04
2022-12-05T11:28:35.048Z,7.10
2022-12-05T11:31:28.211Z,7.19
2022-12-05T11:34:23.759Z,7.05
2022-12-05T11:37:13.644Z,7.03
2022-12-05T11:39:41.260Z,7.02
2022-12-05T11:42:38.901Z,6.88
2022-12-05T11:45:33.236Z,6.88
2022-12-05T11:48:57.044Z,7.06
2022-12-05T11:51:40.051Z,7.17
2022-12-05T11:55:10.226Z,7.26
2022-12-05T11:58:12.513Z,7.30
2022-12-05T12:01:24.200Z,7.29
2022-12-05T12:04:20.892Z,7.24
2022-12-05T12:07:35.836Z,7.21
2022-12-05T12:10:37.437Z,7.39
2022-12-05T12:13:41.349Z,7.34
2022-12-05T12:16:47.605Z,7.13
2022-12-05T12:19:47.747Z,7.16
2022-12-05T12:22:52.027Z,7.15
2022-12-05T12:25:57.604Z,7.13
2022-12-05T12:28:52.643Z,7.13
2022-12-05T12:31:53.790Z,7.19
2022-12-05T12:34:58.876Z,7.14
2022-12-05T12:37:38.787Z,7.07
2022-12-05T12:40:46.100Z,6.99
2022-12-05T12:43:55.553Z,6.94
2022-12-05T12:46:53.204Z,6.99
2022-12-05T12:50:10.393Z,7.06
2022-12-05T12:53:08.455Z,7.15
2022-12-05T12:56:16.014Z,7.30
2022-12-05T12:59:10.059Z,7.35
2022-12-05T13:02:28.839Z,7.28
2022-12-05T13:05:38.210Z,7.25
2022-12-05T13:08:16.234Z,7.29
2022-12-05T13:10:47.380Z,7.33
2022-12-05T13:13:24.114Z,7.35
2022-12-05T13:15:58.069Z,7.39
2022-12-05T13:18:26.736Z,7.42
2022-12-05T13:21:02.479Z,7.35
2022-12-05T13:23:34.239Z,7.26
2022-12-05T13:26:08.788Z,7.22
2022-12-05T13:28:52.976Z,7.18
2022-12-05T13:31:40.358Z,7.24
2022-12-05T13:34:27.663Z,7.32
2022-12-05T13:37:17.807Z,7.38
2022-12-05T13:40:13.739Z,7.35
2022-12-05T13:42:41.408Z,7.31
2022-12-05T13:45:17.041Z,7.36
2022-12-05T13:48:22.322Z,7.42
2022-12-05T13:50:58.700Z,7.43
2022-12-05T13:53:43.732Z,7.30
2022-12-05T13:56:13.802Z,7.29
2022-12-05T13:58:48.476Z,7.34
2022-12-05T14:01:28.123Z,7.45
2022-12-05T14:04:02.191Z,7.51
2022-12-05T14:06:38.554Z,7.47
2022-12-05T14:09:17.881Z,7.49
2022-12-05T14:12:13.012Z,7.39
2022-12-05T14:15:02.203Z,7.34
2022-12-05T14:17:44.097Z,7.33
2022-12-05T14:20:38.833Z,7.32
2022-12-05T14:23:55.928Z,7.35
2022-12-05T14:27:07.429Z,7.27
2022-12-05T14:30:34.012Z,7.30
2022-12-05T14:33:02.798Z,7.23
2022-12-05T14:35:46.175Z,7.19
2022-12-05T14:38:40.215Z,7.15
2022-12-05T14:41:27.198Z,7.12
2022-12-05T14:43:56.703Z,7.12
2022-12-05T14:46:32.461Z,7.14
2022-12-05T14:49:55.512Z,7.12
2022-12-05T14:52:28.703Z,7.10
2022-12-05T14:55:11.045Z,7.09
2022-12-05T14:57:48.915Z,7.08
2022-12-05T15:00:23.595Z,7.05
2022-12-05T15:02:55.400Z,7.08
2022-12-05T15:05:32.301Z,7.09
2022-12-05T15:08:02.066Z,7.14
2022-12-05T15:10:39.009Z,7.13
2022-12-05T15:13:17.658Z,7.15
2022-12-05T15:16:13.332Z,7.14
2022-12-05T15:18:49.601Z,7.17
2022-12-05T15:21:33.440Z,7.20
2022-12-05T15:24:17.413Z,7.20
2022-12-05T15:26:57.989Z,7.13
2022-12-05T15:29:29.643Z,7.09
2022-12-05T15:32:10.284Z,7.04
2022-12-05T15:35:05.059Z,6.90
2022-12-05T15:38:13.936Z,6.88
2022-12-05T15:40:47.561Z,6.85
2022-12-05T15:43:36.609Z,6.92
2022-12-05T15:46:20.778Z,6.95
2022-12-05T15:48:48.818Z,6.96
2022-12-05T15:51:16.635Z,6.94
2022-12-05T15:53:56.474Z,6.95
2022-12-05T15:56:36.951Z,6.97
2022-12-05T15:59:19.179Z,7.04
2022-12-05T16:02:04.941Z,7.03
2022-12-05T16:04:59.519Z,7.02
2022-12-05T16:07:31.059Z,7.01
2022-12-05T16:10:00.772Z,7.04
2022-12-05T16:12:39.976Z,6.98
2022-12-05T16:15:25.120Z,6.99
2022-12-05T16:17:57.059Z,7.04
2022-12-05T16:20:37.094Z,7.01
2022-12-05T16:23:30.460Z,6.93
2022-12-05T16:26:21.199Z,6.71
2022-12-05T16:29:02.593Z,6.61
2022-12-05T16:31:32.707Z,6.59
2022-12-05T16:34:07.998Z,6.49
2022-12-05T16:36:35.545Z,6.60
2022-12-05T16:39:06.289Z,6.45
2022-12-05T16:41:39.669Z,6.43
2022-12-05T16:45:02.137Z,6.40
2022-12-05T16:47:59.334Z,6.38
2022-12-05T16:50:34.953Z,6.33
2022-12-05T16:53:09.625Z,6.18
2022-12-05T16:55:42.024Z,6.23
2022-12-05T16:58:19.333Z,6.21
2022-12-05T17:00:46.603Z,6.29
2022-12-05T17:03:33.422Z,6.35
2022-12-05T17:06:01.210Z,6.42
2022-12-05T17:08:28.500Z,6.49
2022-12-05T17:10:56.070Z,6.53
2022-12-05T17:13:23.644Z,6.58
2022-12-05T17:15:51.264Z,6.61
2022-12-05T17:18:26.605Z,6.64
2022-12-05T17:20:57.729Z,6.63
2022-12-05T17:23:25.307Z,6.66
2022-12-05T17:25:58.793Z,6.64
2022-12-05T17:28:26.115Z,6.63
2022-12-05T17:30:53.443Z,6.65
2022-12-05T17:33:20.648Z,6.69
2022-12-05T17:35:47.937Z,6.71
2022-12-05T17:38:15.173Z,6.74
2022-12-05T17:40:42.881Z,6.76
2022-12-05T17:43:19.901Z,6.74
2022-12-05T17:45:50.409Z,6.74
2022-12-05T17:48:17.699Z,6.74
2022-12-05T17:50:48.475Z,6.74
2022-12-05T17:53:19.966Z,6.77
2022-12-05T17:55:50.617Z,6.71
2022-12-05T17:58:18.354Z,6.73
2022-12-05T18:00:47.066Z,6.71
2022-12-05T18:03:17.492Z,6.72
2022-12-05T18:05:47.076Z,6.70
2022-12-05T18:08:16.494Z,6.65
2022-12-05T18:10:47.977Z,6.66
2022-12-05T18:13:17.251Z,6.61
2022-12-05T18:15:47.973Z,6.62
2022-12-05T18:18:17.811Z,6.60
2022-12-05T18:20:45.125Z,6.62
2022-12-05T18:23:12.584Z,6.60
2022-12-05T18:25:40.934Z,6.60
2022-12-05T18:28:08.221Z,6.59
2022-12-05T18:30:35.397Z,6.55
2022-12-05T18:33:02.640Z,6.51
2022-12-05T18:35:42.508Z,6.47
2022-12-05T18:38:12.876Z,6.44
2022-12-05T18:40:40.123Z,6.35
2022-12-05T18:43:07.370Z,6.27
2022-12-05T18:45:34.707Z,6.14
2022-12-05T18:48:23.263Z,6.02
2022-12-05T18:50:49.194Z,5.87
2022-12-05T18:53:16.819Z,5.77
2022-12-05T18:56:20.953Z,5.71
2022-12-05T18:58:31.327Z,5.74
2022-12-05T19:01:11.643Z,5.71
2022-12-05T19:03:40.048Z,5.61
2022-12-05T19:06:20.545Z,5.60
2022-12-05T19:08:48.433Z,5.64
2022-12-05T19:11:19.388Z,5.75
2022-12-05T19:13:47.937Z,5.75
2022-12-05T19:16:19.572Z,5.66
2022-12-05T19:18:47.357Z,5.68
2022-12-05T19:21:14.596Z,5.64
2022-12-05T19:23:41.971Z,5.70
2022-12-05T19:26:10.382Z,5.83
2022-12-05T19:28:38.398Z,5.75
2022-12-05T19:31:13.629Z,5.72
2022-12-05T19:33:45.737Z,5.71
2022-12-05T19:36:23.898Z,5.73
2022-12-05T19:38:53.205Z,5.71
2022-12-05T19:41:28.883Z,5.66
2022-12-05T19:44:01.645Z,5.64
2022-12-05T19:46:32.157Z,5.58
2022-12-05T19:49:08.217Z,5.56
2022-12-05T19:51:36.156Z,5.50
2022-12-05T19:54:06.375Z,5.20
2022-12-05T19:56:35.509Z,5.02
2022-12-05T19:59:04.805Z,4.89
2022-12-05T20:01:35.522Z,4.74
2022-12-05T20:04:13.340Z,4.68
2022-12-05T20:06:49.805Z,4.67
2022-12-05T20:09:21.229Z,4.57
2022-12-05T20:11:55.536Z,4.50
2022-12-05T20:14:25.618Z,4.44
2022-12-05T20:16:54.191Z,4.37
2022-12-05T20:19:23.427Z,4.39
2022-12-05T20:21:50.759Z,4.30
2022-12-05T20:24:17.993Z,4.30
2022-12-05T20:26:45.344Z,4.48
2022-12-05T20:29:12.536Z,4.51
2022-12-05T20:31:42.838Z,4.40
2022-12-05T20:34:13.563Z,4.23
2022-12-05T20:36:41.902Z,4.06
2022-12-05T20:39:18.455Z,3.93
2022-12-05T20:41:46.139Z,3.87
2022-12-05T20:44:16.992Z,3.94
2022-12-05T20:46:44.489Z,3.96
2022-12-05T20:49:14.889Z,3.94
2022-12-05T20:51:45.320Z,3.87
2022-12-05T20:54:14.342Z,3.88
2022-12-05T20:56:41.702Z,3.88
2022-12-05T20:59:12.769Z,3.93
2022-12-05T21:01:41.137Z,3.87
2022-12-05T21:04:09.077Z,3.82
2022-12-05T21:06:41.369Z,3.72
2022-12-05T21:09:26.237Z,3.70
2022-12-05T21:11:56.722Z,3.71
2022-12-05T21:14:24.650Z,3.72
2022-12-05T21:16:53.134Z,3.87
2022-12-05T21:19:21.917Z,3.95
2022-12-05T21:21:50.856Z,3.82
2022-12-05T21:24:18.129Z,3.67
2022-12-05T21:26:46.633Z,3.61
2022-12-05T21:29:13.940Z,3.51
2022-12-05T21:31:45.267Z,3.48
2022-12-05T21:34:21.073Z,3.52
2022-12-05T21:36:48.961Z,3.73
2022-12-05T21:39:16.681Z,3.75
2022-12-05T21:41:43.951Z,3.73
2022-12-05T21:44:11.204Z,3.76
2022-12-05T21:46:38.540Z,3.86
2022-12-05T21:49:06.042Z,3.96
2022-12-05T21:51:33.229Z,3.90
2022-12-05T21:54:00.465Z,3.89
2022-12-05T21:56:28.361Z,3.96
2022-12-05T21:58:55.641Z,3.95
2022-12-05T22:01:27.956Z,3.90
2022-12-05T22:04:01.500Z,3.94
2022-12-05T22:06:33.957Z,4.06
2022-12-05T22:09:02.016Z,4.11
2022-12-05T22:11:29.776Z,4.13
2022-12-05T22:13:57.025Z,4.10
2022-12-05T22:16:29.197Z,4.06
2022-12-05T22:18:59.673Z,4.11
2022-12-05T22:21:26.952Z,4.15
2022-12-05T22:23:54.259Z,4.16
2022-12-05T22:26:25.460Z,4.19
2022-12-05T22:28:55.638Z,4.22
2022-12-05T22:31:24.470Z,4.29
2022-12-05T22:33:52.145Z,4.34
2022-12-05T22:36:20.201Z,4.31
2022-12-05T22:38:48.897Z,4.27
2022-12-05T22:41:26.127Z,4.33
2022-12-05T22:43:59.876Z,4.33
2022-12-05T22:46:29.003Z,4.37
2022-12-05T22:48:57.067Z,4.44
2022-12-05T22:51:24.842Z,4.41
2022-12-05T22:53:53.440Z,4.35
2022-12-05T22:56:24.071Z,4.31
2022-12-05T22:59:00.604Z,4.26
2022-12-05T23:01:33.255Z,4.18
2022-12-05T23:04:09.168Z,4.12
2022-12-05T23:06:37.762Z,4.12
2022-12-05T23:09:09.875Z,4.08
2022-12-05T23:11:37.738Z,4.12
2022-12-05T23:14:06.911Z,4.06
2022-12-05T23:16:34.863Z,4.12
2022-12-05T23:19:05.519Z,4.08
2022-12-05T23:21:39.823Z,3.99
2022-12-05T23:24:11.927Z,3.90
2022-12-05T23:26:45.094Z,3.79
2022-12-05T23:29:14.103Z,3.82
2022-12-05T23:31:42.482Z,3.76
2022-12-05T23:34:11.003Z,3.73
2022-12-05T23:36:39.016Z,3.69
2022-12-05T23:39:06.764Z,3.78
2022-12-05T23:41:34.192Z,3.71
2022-12-05T23:44:01.636Z,3.63
2022-12-05T23:46:29.746Z,3.69
2022-12-05T23:48:57.968Z,3.73
2022-12-05T23:51:30.311Z,3.77
2022-12-05T23:54:01.527Z,3.71
2022-12-05T23:56:32.808Z,3.73
2022-12-05T23:59:03.407Z,3.68
